sensor_id;sensor_type;location;lat;lon;timestamp;P1;durP1;ratioP1;P2;durP2;ratioP2
9052;SDS011;4561;47.450;7.516;2023-03-31T00:02:23;7.10;;;2.90;;
9052;SDS011;4561;47.450;7.516;2023-03-31T00:05:44;7.37;;;3.40;;
9052;SDS011;4561;47.450;7.516;2023-03-31T00:09:14;6.97;;;3.27;;
9052;SDS011;4561;47.450;7.516;2023-03-31T00:12:37;5.67;;;3.17;;
9052;SDS011;4561;47.450;7.516;2023-03-31T00:15:59;6.03;;;2.70;;
9052;SDS011;4561;47.450;7.516;2023-03-31T00:19:21;7.00;;;3.30;;
9052;SDS011;4561;47.450;7.516;2023-03-31T00:22:41;4.83;;;2.97;;
9052;SDS011;4561;47.450;7.516;2023-03-31T00:26:05;5.83;;;3.37;;
9052;SDS011;4561;47.450;7.516;2023-03-31T00:29:26;5.67;;;2.90;;
9052;SDS011;4561;47.450;7.516;2023-03-31T00:32:47;5.57;;;3.03;;
9052;SDS011;4561;47.450;7.516;2023-03-31T00:36:08;5.33;;;3.03;;
9052;SDS011;4561;47.450;7.516;2023-03-31T00:39:29;6.80;;;2.90;;
9052;SDS011;4561;47.450;7.516;2023-03-31T00:42:51;6.87;;;3.50;;
9052;SDS011;4561;47.450;7.516;2023-03-31T00:46:21;5.90;;;2.93;;
9052;SDS011;4561;47.450;7.516;2023-03-31T00:49:47;4.17;;;2.73;;
9052;SDS011;4561;47.450;7.516;2023-03-31T00:53:11;5.00;;;3.10;;
9052;SDS011;4561;47.450;7.516;2023-03-31T00:56:35;7.47;;;3.37;;
9052;SDS011;4561;47.450;7.516;2023-03-31T00:59:58;7.73;;;3.10;;
9052;SDS011;4561;47.450;7.516;2023-03-31T01:03:22;7.77;;;3.00;;
9052;SDS011;4561;47.450;7.516;2023-03-31T01:06:47;4.37;;;3.20;;
9052;SDS011;4561;47.450;7.516;2023-03-31T01:10:16;5.53;;;3.13;;
9052;SDS011;4561;47.450;7.516;2023-03-31T01:13:37;7.33;;;3.10;;
9052;SDS011;4561;47.450;7.516;2023-03-31T01:16:58;5.73;;;3.33;;
9052;SDS011;4561;47.450;7.516;2023-03-31T01:42:13;4.37;;;3.27;;
9052;SDS011;4561;47.450;7.516;2023-03-31T01:45:43;5.57;;;3.20;;
9052;SDS011;4561;47.450;7.516;2023-03-31T01:56:51;10.60;;;4.00;;
9052;SDS011;4561;47.450;7.516;2023-03-31T02:00:15;7.83;;;3.77;;
9052;SDS011;4561;47.450;7.516;2023-03-31T02:03:38;7.33;;;3.03;;
9052;SDS011;4561;47.450;7.516;2023-03-31T02:07:06;5.73;;;3.23;;
9052;SDS011;4561;47.450;7.516;2023-03-31T02:10:31;5.40;;;3.47;;
9052;SDS011;4561;47.450;7.516;2023-03-31T02:13:55;9.93;;;3.40;;
9052;SDS011;4561;47.450;7.516;2023-03-31T02:17:16;4.13;;;3.27;;
9052;SDS011;4561;47.450;7.516;2023-03-31T02:20:39;7.33;;;4.07;;
9052;SDS011;4561;47.450;7.516;2023-03-31T02:24:03;7.57;;;3.50;;
9052;SDS011;4561;47.450;7.516;2023-03-31T02:27:36;6.23;;;3.70;;
9052;SDS011;4561;47.450;7.516;2023-03-31T02:31:22;7.00;;;3.67;;
9052;SDS011;4561;47.450;7.516;2023-03-31T02:34:39;7.93;;;4.03;;
9052;SDS011;4561;47.450;7.516;2023-03-31T02:38:00;8.60;;;3.87;;
9052;SDS011;4561;47.450;7.516;2023-03-31T02:41:21;6.97;;;3.90;;
9052;SDS011;4561;47.450;7.516;2023-03-31T02:44:41;6.83;;;3.87;;
9052;SDS011;4561;47.450;7.516;2023-03-31T02:48:05;7.40;;;3.87;;
9052;SDS011;4561;47.450;7.516;2023-03-31T02:55:17;7.93;;;3.60;;
9052;SDS011;4561;47.450;7.516;2023-03-31T03:13:32;7.27;;;3.20;;
9052;SDS011;4561;47.450;7.516;2023-03-31T03:20:38;7.57;;;3.33;;
9052;SDS011;4561;47.450;7.516;2023-03-31T03:23:59;7.50;;;3.07;;
9052;SDS011;4561;47.450;7.516;2023-03-31T03:27:20;9.63;;;3.00;;
9052;SDS011;4561;47.450;7.516;2023-03-31T03:30:43;5.47;;;3.10;;
9052;SDS011;4561;47.450;7.516;2023-03-31T03:34:04;5.90;;;2.80;;
9052;SDS011;4561;47.450;7.516;2023-03-31T03:37:26;5.00;;;2.83;;
9052;SDS011;4561;47.450;7.516;2023-03-31T03:40:46;7.00;;;2.77;;
9052;SDS011;4561;47.450;7.516;2023-03-31T03:44:07;8.60;;;3.30;;
9052;SDS011;4561;47.450;7.516;2023-03-31T03:47:27;8.33;;;3.00;;
9052;SDS011;4561;47.450;7.516;2023-03-31T03:50:51;5.00;;;2.33;;
9052;SDS011;4561;47.450;7.516;2023-03-31T03:54:14;6.17;;;2.73;;
9052;SDS011;4561;47.450;7.516;2023-03-31T03:57:34;8.53;;;3.20;;
9052;SDS011;4561;47.450;7.516;2023-03-31T04:00:55;6.67;;;2.97;;
9052;SDS011;4561;47.450;7.516;2023-03-31T04:04:18;6.93;;;2.90;;
9052;SDS011;4561;47.450;7.516;2023-03-31T04:07:38;5.83;;;2.30;;
9052;SDS011;4561;47.450;7.516;2023-03-31T04:10:59;5.63;;;2.60;;
9052;SDS011;4561;47.450;7.516;2023-03-31T04:14:19;6.03;;;2.40;;
9052;SDS011;4561;47.450;7.516;2023-03-31T04:17:40;5.87;;;2.43;;
9052;SDS011;4561;47.450;7.516;2023-03-31T04:21:00;3.93;;;2.70;;
9052;SDS011;4561;47.450;7.516;2023-03-31T04:24:24;6.67;;;2.83;;
9052;SDS011;4561;47.450;7.516;2023-03-31T04:27:52;7.23;;;2.90;;
9052;SDS011;4561;47.450;7.516;2023-03-31T04:31:15;6.50;;;2.77;;
9052;SDS011;4561;47.450;7.516;2023-03-31T04:34:44;5.77;;;2.40;;
9052;SDS011;4561;47.450;7.516;2023-03-31T04:38:05;4.97;;;2.67;;
9052;SDS011;4561;47.450;7.516;2023-03-31T04:41:27;4.20;;;2.20;;
9052;SDS011;4561;47.450;7.516;2023-03-31T04:44:48;5.47;;;2.70;;
9052;SDS011;4561;47.450;7.516;2023-03-31T04:48:08;4.40;;;2.50;;
9052;SDS011;4561;47.450;7.516;2023-03-31T04:51:29;5.07;;;2.90;;
9052;SDS011;4561;47.450;7.516;2023-03-31T04:54:49;5.37;;;2.50;;
9052;SDS011;4561;47.450;7.516;2023-03-31T04:58:10;2.80;;;1.97;;
9052;SDS011;4561;47.450;7.516;2023-03-31T05:01:33;7.20;;;2.70;;
9052;SDS011;4561;47.450;7.516;2023-03-31T05:04:55;4.40;;;2.40;;
9052;SDS011;4561;47.450;7.516;2023-03-31T05:08:15;7.77;;;2.80;;
9052;SDS011;4561;47.450;7.516;2023-03-31T05:11:35;6.63;;;2.40;;
9052;SDS011;4561;47.450;7.516;2023-03-31T05:14:58;6.03;;;2.80;;
9052;SDS011;4561;47.450;7.516;2023-03-31T05:18:21;7.77;;;3.03;;
9052;SDS011;4561;47.450;7.516;2023-03-31T05:21:41;6.60;;;2.63;;
9052;SDS011;4561;47.450;7.516;2023-03-31T05:25:02;6.00;;;2.83;;
9052;SDS011;4561;47.450;7.516;2023-03-31T05:28:26;3.87;;;2.43;;
9052;SDS011;4561;47.450;7.516;2023-03-31T05:31:46;8.43;;;3.37;;
9052;SDS011;4561;47.450;7.516;2023-03-31T05:35:07;5.63;;;3.00;;
9052;SDS011;4561;47.450;7.516;2023-03-31T05:38:30;5.70;;;2.70;;
9052;SDS011;4561;47.450;7.516;2023-03-31T05:41:50;5.63;;;3.00;;
9052;SDS011;4561;47.450;7.516;2023-03-31T05:45:11;5.40;;;2.97;;
9052;SDS011;4561;47.450;7.516;2023-03-31T05:48:31;5.43;;;3.13;;
9052;SDS011;4561;47.450;7.516;2023-03-31T05:51:52;3.87;;;2.80;;
9052;SDS011;4561;47.450;7.516;2023-03-31T05:55:12;6.03;;;3.27;;
9052;SDS011;4561;47.450;7.516;2023-03-31T05:58:33;5.87;;;3.40;;
9052;SDS011;4561;47.450;7.516;2023-03-31T06:01:55;5.77;;;3.00;;
9052;SDS011;4561;47.450;7.516;2023-03-31T06:05:15;6.47;;;3.00;;
9052;SDS011;4561;47.450;7.516;2023-03-31T06:08:36;5.77;;;3.10;;
9052;SDS011;4561;47.450;7.516;2023-03-31T06:11:59;6.40;;;3.00;;
9052;SDS011;4561;47.450;7.516;2023-03-31T06:15:29;8.03;;;3.23;;
9052;SDS011;4561;47.450;7.516;2023-03-31T06:18:50;8.73;;;3.23;;
9052;SDS011;4561;47.450;7.516;2023-03-31T06:22:12;4.50;;;2.90;;
9052;SDS011;4561;47.450;7.516;2023-03-31T06:25:32;7.90;;;3.40;;
9052;SDS011;4561;47.450;7.516;2023-03-31T06:28:53;7.50;;;3.33;;
9052;SDS011;4561;47.450;7.516;2023-03-31T06:32:13;3.13;;;2.20;;
9052;SDS011;4561;47.450;7.516;2023-03-31T06:35:36;4.57;;;2.33;;
9052;SDS011;4561;47.450;7.516;2023-03-31T06:38:57;4.00;;;2.63;;
9052;SDS011;4561;47.450;7.516;2023-03-31T06:42:17;5.03;;;2.43;;
9052;SDS011;4561;47.450;7.516;2023-03-31T06:45:38;3.17;;;2.20;;
9052;SDS011;4561;47.450;7.516;2023-03-31T06:48:58;3.87;;;2.30;;
9052;SDS011;4561;47.450;7.516;2023-03-31T06:52:19;6.27;;;2.97;;
9052;SDS011;4561;47.450;7.516;2023-03-31T06:55:39;4.47;;;3.00;;
9052;SDS011;4561;47.450;7.516;2023-03-31T06:59:00;4.80;;;2.77;;
9052;SDS011;4561;47.450;7.516;2023-03-31T07:02:22;5.20;;;2.80;;
9052;SDS011;4561;47.450;7.516;2023-03-31T07:05:51;5.90;;;2.70;;
9052;SDS011;4561;47.450;7.516;2023-03-31T07:09:15;6.83;;;2.90;;
9052;SDS011;4561;47.450;7.516;2023-03-31T07:12:40;4.57;;;2.67;;
9052;SDS011;4561;47.450;7.516;2023-03-31T07:16:06;5.07;;;2.50;;
9052;SDS011;4561;47.450;7.516;2023-03-31T07:19:29;4.73;;;2.20;;
9052;SDS011;4561;47.450;7.516;2023-03-31T07:22:52;5.83;;;2.77;;
9052;SDS011;4561;47.450;7.516;2023-03-31T07:26:15;5.20;;;2.47;;
9052;SDS011;4561;47.450;7.516;2023-03-31T07:29:37;4.30;;;2.80;;
9052;SDS011;4561;47.450;7.516;2023-03-31T07:32:58;7.17;;;2.87;;
9052;SDS011;4561;47.450;7.516;2023-03-31T07:36:18;5.57;;;2.47;;
9052;SDS011;4561;47.450;7.516;2023-03-31T07:39:39;4.43;;;2.47;;
9052;SDS011;4561;47.450;7.516;2023-03-31T07:43:00;4.57;;;2.57;;
9052;SDS011;4561;47.450;7.516;2023-03-31T07:46:22;7.77;;;2.37;;
9052;SDS011;4561;47.450;7.516;2023-03-31T07:49:43;3.70;;;2.47;;
9052;SDS011;4561;47.450;7.516;2023-03-31T07:53:04;4.30;;;2.27;;
9052;SDS011;4561;47.450;7.516;2023-03-31T07:56:24;5.70;;;2.50;;
9052;SDS011;4561;47.450;7.516;2023-03-31T07:59:48;4.13;;;2.43;;
9052;SDS011;4561;47.450;7.516;2023-03-31T08:03:09;6.50;;;2.60;;
9052;SDS011;4561;47.450;7.516;2023-03-31T08:06:29;5.53;;;2.63;;
9052;SDS011;4561;47.450;7.516;2023-03-31T08:09:50;4.80;;;2.23;;
9052;SDS011;4561;47.450;7.516;2023-03-31T08:13:10;4.80;;;2.13;;
9052;SDS011;4561;47.450;7.516;2023-03-31T08:16:31;4.93;;;2.40;;
9052;SDS011;4561;47.450;7.516;2023-03-31T08:19:51;5.00;;;2.40;;
9052;SDS011;4561;47.450;7.516;2023-03-31T08:23:12;3.53;;;2.00;;
9052;SDS011;4561;47.450;7.516;2023-03-31T08:26:32;5.47;;;2.37;;
9052;SDS011;4561;47.450;7.516;2023-03-31T08:29:56;8.93;;;2.33;;
9052;SDS011;4561;47.450;7.516;2023-03-31T08:33:22;5.87;;;2.40;;
9052;SDS011;4561;47.450;7.516;2023-03-31T08:36:42;4.57;;;2.30;;
9052;SDS011;4561;47.450;7.516;2023-03-31T08:40:06;5.67;;;1.93;;
9052;SDS011;4561;47.450;7.516;2023-03-31T08:43:36;7.87;;;2.23;;
9052;SDS011;4561;47.450;7.516;2023-03-31T08:47:01;4.60;;;2.17;;
9052;SDS011;4561;47.450;7.516;2023-03-31T08:50:26;4.83;;;2.33;;
9052;SDS011;4561;47.450;7.516;2023-03-31T08:53:51;7.17;;;2.03;;
9052;SDS011;4561;47.450;7.516;2023-03-31T08:57:30;5.13;;;1.73;;
9052;SDS011;4561;47.450;7.516;2023-03-31T09:04:43;5.23;;;2.13;;
9052;SDS011;4561;47.450;7.516;2023-03-31T09:08:12;4.13;;;1.80;;
9052;SDS011;4561;47.450;7.516;2023-03-31T09:11:39;5.50;;;2.00;;
9052;SDS011;4561;47.450;7.516;2023-03-31T09:15:09;5.10;;;2.00;;
9052;SDS011;4561;47.450;7.516;2023-03-31T09:18:34;4.77;;;1.77;;
9052;SDS011;4561;47.450;7.516;2023-03-31T09:22:07;6.47;;;1.70;;
9052;SDS011;4561;47.450;7.516;2023-03-31T09:25:32;3.93;;;1.67;;
9052;SDS011;4561;47.450;7.516;2023-03-31T09:28:55;2.87;;;1.63;;
9052;SDS011;4561;47.450;7.516;2023-03-31T09:32:20;5.63;;;1.63;;
9052;SDS011;4561;47.450;7.516;2023-03-31T09:35:44;5.97;;;1.83;;
9052;SDS011;4561;47.450;7.516;2023-03-31T09:39:05;4.50;;;1.80;;
9052;SDS011;4561;47.450;7.516;2023-03-31T09:42:28;3.00;;;1.73;;
9052;SDS011;4561;47.450;7.516;2023-03-31T09:45:49;3.27;;;1.60;;
9052;SDS011;4561;47.450;7.516;2023-03-31T09:49:10;4.33;;;1.70;;
9052;SDS011;4561;47.450;7.516;2023-03-31T09:52:37;5.30;;;1.97;;
9052;SDS011;4561;47.450;7.516;2023-03-31T09:56:00;6.20;;;2.07;;
9052;SDS011;4561;47.450;7.516;2023-03-31T09:59:34;5.85;;;1.88;;
9052;SDS011;4561;47.450;7.516;2023-03-31T10:02:55;4.10;;;2.17;;
9052;SDS011;4561;47.450;7.516;2023-03-31T10:06:16;3.10;;;2.03;;
9052;SDS011;4561;47.450;7.516;2023-03-31T10:09:37;3.88;;;1.90;;
9052;SDS011;4561;47.450;7.516;2023-03-31T10:12:58;3.40;;;1.83;;
9052;SDS011;4561;47.450;7.516;2023-03-31T10:16:30;4.22;;;1.65;;
9052;SDS011;4561;47.450;7.516;2023-03-31T10:20:03;2.83;;;1.80;;
9052;SDS011;4561;47.450;7.516;2023-03-31T10:23:31;3.28;;;1.80;;
9052;SDS011;4561;47.450;7.516;2023-03-31T10:26:53;3.78;;;1.90;;
9052;SDS011;4561;47.450;7.516;2023-03-31T10:30:20;4.65;;;1.55;;
9052;SDS011;4561;47.450;7.516;2023-03-31T10:33:47;5.10;;;1.63;;
9052;SDS011;4561;47.450;7.516;2023-03-31T10:37:10;4.57;;;2.05;;
9052;SDS011;4561;47.450;7.516;2023-03-31T10:40:50;5.78;;;1.98;;
9052;SDS011;4561;47.450;7.516;2023-03-31T10:44:29;3.67;;;1.48;;
9052;SDS011;4561;47.450;7.516;2023-03-31T10:47:52;4.25;;;1.77;;
9052;SDS011;4561;47.450;7.516;2023-03-31T10:51:24;3.33;;;1.67;;
9052;SDS011;4561;47.450;7.516;2023-03-31T10:54:53;4.78;;;1.83;;
9052;SDS011;4561;47.450;7.516;2023-03-31T11:05:41;3.65;;;1.35;;
9052;SDS011;4561;47.450;7.516;2023-03-31T11:13:09;3.70;;;1.90;;
9052;SDS011;4561;47.450;7.516;2023-03-31T11:20:27;3.93;;;1.93;;
9052;SDS011;4561;47.450;7.516;2023-03-31T11:24:04;3.03;;;1.40;;
9052;SDS011;4561;47.450;7.516;2023-03-31T11:35:38;2.53;;;1.00;;
9052;SDS011;4561;47.450;7.516;2023-03-31T11:39:31;2.37;;;0.90;;
9052;SDS011;4561;47.450;7.516;2023-03-31T11:43:15;4.57;;;0.70;;
9052;SDS011;4561;47.450;7.516;2023-03-31T11:47:03;2.23;;;0.93;;
9052;SDS011;4561;47.450;7.516;2023-03-31T11:50:29;2.77;;;1.10;;
9052;SDS011;4561;47.450;7.516;2023-03-31T11:53:52;1.90;;;0.80;;
9052;SDS011;4561;47.450;7.516;2023-03-31T11:57:22;1.90;;;0.50;;
9052;SDS011;4561;47.450;7.516;2023-03-31T12:08:04;1.50;;;0.87;;
9052;SDS011;4561;47.450;7.516;2023-03-31T12:11:28;2.20;;;0.90;;
9052;SDS011;4561;47.450;7.516;2023-03-31T12:14:53;3.60;;;1.10;;
9052;SDS011;4561;47.450;7.516;2023-03-31T12:18:22;3.60;;;1.30;;
9052;SDS011;4561;47.450;7.516;2023-03-31T12:21:53;2.37;;;1.10;;
9052;SDS011;4561;47.450;7.516;2023-03-31T12:25:19;2.83;;;1.20;;
9052;SDS011;4561;47.450;7.516;2023-03-31T12:28:45;2.47;;;1.20;;
9052;SDS011;4561;47.450;7.516;2023-03-31T12:32:08;4.43;;;1.63;;
9052;SDS011;4561;47.450;7.516;2023-03-31T12:57:50;7.67;;;1.80;;
9052;SDS011;4561;47.450;7.516;2023-03-31T13:01:12;5.77;;;1.63;;
9052;SDS011;4561;47.450;7.516;2023-03-31T13:04:36;7.87;;;1.70;;
9052;SDS011;4561;47.450;7.516;2023-03-31T13:07:57;5.30;;;1.60;;
9052;SDS011;4561;47.450;7.516;2023-03-31T13:11:19;3.73;;;1.50;;
9052;SDS011;4561;47.450;7.516;2023-03-31T13:15:02;6.47;;;2.10;;
9052;SDS011;4561;47.450;7.516;2023-03-31T13:18:26;3.87;;;1.60;;
9052;SDS011;4561;47.450;7.516;2023-03-31T13:21:51;5.27;;;1.70;;
9052;SDS011;4561;47.450;7.516;2023-03-31T13:28:50;4.10;;;1.70;;
9052;SDS011;4561;47.450;7.516;2023-03-31T13:32:33;5.93;;;1.60;;
9052;SDS011;4561;47.450;7.516;2023-03-31T13:36:01;3.03;;;1.17;;
9052;SDS011;4561;47.450;7.516;2023-03-31T14:09:44;2.63;;;1.10;;
9052;SDS011;4561;47.450;7.516;2023-03-31T14:13:12;1.00;;;0.40;;
9052;SDS011;4561;47.450;7.516;2023-03-31T14:17:07;1.93;;;0.70;;
9052;SDS011;4561;47.450;7.516;2023-03-31T14:20:27;0.53;;;0.50;;
9052;SDS011;4561;47.450;7.516;2023-03-31T14:31:33;1.97;;;0.80;;
9052;SDS011;4561;47.450;7.516;2023-03-31T14:38:37;1.60;;;0.73;;
9052;SDS011;4561;47.450;7.516;2023-03-31T14:42:04;3.03;;;0.80;;
9052;SDS011;4561;47.450;7.516;2023-03-31T14:45:29;3.20;;;0.70;;
9052;SDS011;4561;47.450;7.516;2023-03-31T14:48:50;1.87;;;0.77;;
9052;SDS011;4561;47.450;7.516;2023-03-31T14:52:16;3.73;;;0.90;;
9052;SDS011;4561;47.450;7.516;2023-03-31T14:55:38;2.53;;;1.00;;
9052;SDS011;4561;47.450;7.516;2023-03-31T14:58:59;1.67;;;0.90;;
9052;SDS011;4561;47.450;7.516;2023-03-31T15:03:03;2.23;;;0.90;;
9052;SDS011;4561;47.450;7.516;2023-03-31T15:06:06;2.27;;;1.03;;
9052;SDS011;4561;47.450;7.516;2023-03-31T15:09:28;1.70;;;0.80;;
9052;SDS011;4561;47.450;7.516;2023-03-31T15:12:49;1.70;;;0.90;;
9052;SDS011;4561;47.450;7.516;2023-03-31T15:16:45;1.97;;;0.97;;
9052;SDS011;4561;47.450;7.516;2023-03-31T15:23:54;2.40;;;0.90;;
9052;SDS011;4561;47.450;7.516;2023-03-31T15:27:17;2.97;;;1.10;;
9052;SDS011;4561;47.450;7.516;2023-03-31T15:30:55;2.30;;;0.87;;
9052;SDS011;4561;47.450;7.516;2023-03-31T15:34:18;2.37;;;1.00;;
9052;SDS011;4561;47.450;7.516;2023-03-31T15:37:41;2.30;;;1.00;;
9052;SDS011;4561;47.450;7.516;2023-03-31T15:41:02;2.07;;;1.03;;
9052;SDS011;4561;47.450;7.516;2023-03-31T15:44:27;3.67;;;1.03;;
9052;SDS011;4561;47.450;7.516;2023-03-31T15:47:59;3.17;;;1.23;;
9052;SDS011;4561;47.450;7.516;2023-03-31T15:51:33;5.27;;;1.27;;
9052;SDS011;4561;47.450;7.516;2023-03-31T15:54:58;5.07;;;1.50;;
9052;SDS011;4561;47.450;7.516;2023-03-31T15:58:19;3.43;;;1.40;;
9052;SDS011;4561;47.450;7.516;2023-03-31T16:01:44;6.77;;;1.50;;
9052;SDS011;4561;47.450;7.516;2023-03-31T16:05:05;8.63;;;2.03;;
9052;SDS011;4561;47.450;7.516;2023-03-31T16:08:36;4.63;;;1.50;;
9052;SDS011;4561;47.450;7.516;2023-03-31T16:11:59;4.03;;;1.13;;
9052;SDS011;4561;47.450;7.516;2023-03-31T16:15:22;3.63;;;1.30;;
9052;SDS011;4561;47.450;7.516;2023-03-31T16:18:50;6.23;;;1.60;;
9052;SDS011;4561;47.450;7.516;2023-03-31T16:22:20;6.43;;;2.13;;
9052;SDS011;4561;47.450;7.516;2023-03-31T16:25:45;6.23;;;1.93;;
9052;SDS011;4561;47.450;7.516;2023-03-31T16:29:05;4.73;;;1.50;;
9052;SDS011;4561;47.450;7.516;2023-03-31T16:32:29;4.57;;;1.47;;
9052;SDS011;4561;47.450;7.516;2023-03-31T16:35:50;2.67;;;1.27;;
9052;SDS011;4561;47.450;7.516;2023-03-31T16:39:15;6.10;;;1.63;;
9052;SDS011;4561;47.450;7.516;2023-03-31T16:42:35;8.97;;;2.10;;
9052;SDS011;4561;47.450;7.516;2023-03-31T16:45:59;4.57;;;1.70;;
9052;SDS011;4561;47.450;7.516;2023-03-31T16:49:22;6.13;;;1.97;;
9052;SDS011;4561;47.450;7.516;2023-03-31T16:52:47;7.17;;;1.63;;
9052;SDS011;4561;47.450;7.516;2023-03-31T16:56:09;5.97;;;2.10;;
9052;SDS011;4561;47.450;7.516;2023-03-31T16:59:30;4.27;;;1.77;;
9052;SDS011;4561;47.450;7.516;2023-03-31T17:02:51;7.13;;;1.93;;
9052;SDS011;4561;47.450;7.516;2023-03-31T17:06:11;6.80;;;1.90;;
9052;SDS011;4561;47.450;7.516;2023-03-31T17:09:34;8.93;;;1.90;;
9052;SDS011;4561;47.450;7.516;2023-03-31T17:12:57;6.87;;;1.60;;
9052;SDS011;4561;47.450;7.516;2023-03-31T17:16:17;6.70;;;1.93;;
9052;SDS011;4561;47.450;7.516;2023-03-31T17:19:37;4.83;;;1.20;;
9052;SDS011;4561;47.450;7.516;2023-03-31T17:22:58;3.77;;;1.27;;
9052;SDS011;4561;47.450;7.516;2023-03-31T17:26:22;3.20;;;1.33;;
9052;SDS011;4561;47.450;7.516;2023-03-31T17:29:42;1.33;;;0.90;;
9052;SDS011;4561;47.450;7.516;2023-03-31T17:33:03;1.70;;;0.60;;
9052;SDS011;4561;47.450;7.516;2023-03-31T17:36:28;1.13;;;0.60;;
9052;SDS011;4561;47.450;7.516;2023-03-31T17:39:51;1.80;;;0.60;;
9052;SDS011;4561;47.450;7.516;2023-03-31T17:43:12;2.80;;;0.80;;
9052;SDS011;4561;47.450;7.516;2023-03-31T17:46:33;3.40;;;1.00;;
9052;SDS011;4561;47.450;7.516;2023-03-31T17:49:54;2.40;;;0.80;;
9052;SDS011;4561;47.450;7.516;2023-03-31T17:53:15;2.13;;;0.80;;
9052;SDS011;4561;47.450;7.516;2023-03-31T17:56:37;1.27;;;0.60;;
9052;SDS011;4561;47.450;7.516;2023-03-31T17:59:57;1.97;;;0.60;;
9052;SDS011;4561;47.450;7.516;2023-03-31T18:03:20;0.67;;;0.60;;
9052;SDS011;4561;47.450;7.516;2023-03-31T18:06:41;1.47;;;0.87;;
9052;SDS011;4561;47.450;7.516;2023-03-31T18:10:04;1.20;;;0.60;;
9052;SDS011;4561;47.450;7.516;2023-03-31T18:13:25;1.40;;;0.80;;
9052;SDS011;4561;47.450;7.516;2023-03-31T18:16:50;1.60;;;0.67;;
9052;SDS011;4561;47.450;7.516;2023-03-31T18:20:10;1.80;;;0.80;;
9052;SDS011;4561;47.450;7.516;2023-03-31T18:23:32;0.90;;;0.70;;
9052;SDS011;4561;47.450;7.516;2023-03-31T18:26:53;2.93;;;1.03;;
9052;SDS011;4561;47.450;7.516;2023-03-31T18:30:14;2.53;;;0.77;;
9052;SDS011;4561;47.450;7.516;2023-03-31T18:33:35;2.27;;;0.80;;
9052;SDS011;4561;47.450;7.516;2023-03-31T18:36:56;1.50;;;0.70;;
9052;SDS011;4561;47.450;7.516;2023-03-31T18:40:16;2.07;;;0.67;;
9052;SDS011;4561;47.450;7.516;2023-03-31T18:43:39;2.37;;;1.00;;
9052;SDS011;4561;47.450;7.516;2023-03-31T18:47:00;2.70;;;1.00;;
9052;SDS011;4561;47.450;7.516;2023-03-31T18:50:21;4.53;;;0.90;;
9052;SDS011;4561;47.450;7.516;2023-03-31T18:53:42;2.23;;;0.93;;
9052;SDS011;4561;47.450;7.516;2023-03-31T18:57:02;1.10;;;1.00;;
9052;SDS011;4561;47.450;7.516;2023-03-31T19:00:23;1.53;;;0.90;;
9052;SDS011;4561;47.450;7.516;2023-03-31T19:03:43;5.40;;;4.77;;
9052;SDS011;4561;47.450;7.516;2023-03-31T19:07:04;2.57;;;0.80;;
9052;SDS011;4561;47.450;7.516;2023-03-31T19:10:24;4.90;;;1.00;;
9052;SDS011;4561;47.450;7.516;2023-03-31T19:13:45;3.07;;;1.07;;
9052;SDS011;4561;47.450;7.516;2023-03-31T19:17:05;8.03;;;3.30;;
9052;SDS011;4561;47.450;7.516;2023-03-31T19:20:26;2.07;;;1.10;;
9052;SDS011;4561;47.450;7.516;2023-03-31T19:23:46;3.40;;;1.40;;
9052;SDS011;4561;47.450;7.516;2023-03-31T19:27:08;3.90;;;1.20;;
9052;SDS011;4561;47.450;7.516;2023-03-31T19:30:28;5.37;;;1.47;;
9052;SDS011;4561;47.450;7.516;2023-03-31T19:33:49;5.80;;;1.80;;
9052;SDS011;4561;47.450;7.516;2023-03-31T19:37:09;3.87;;;1.20;;
9052;SDS011;4561;47.450;7.516;2023-03-31T19:40:30;4.77;;;1.50;;
9052;SDS011;4561;47.450;7.516;2023-03-31T19:43:50;4.00;;;1.33;;
9052;SDS011;4561;47.450;7.516;2023-03-31T19:47:13;3.10;;;1.20;;
9052;SDS011;4561;47.450;7.516;2023-03-31T19:50:33;3.47;;;1.23;;
9052;SDS011;4561;47.450;7.516;2023-03-31T19:53:56;5.93;;;1.47;;
9052;SDS011;4561;47.450;7.516;2023-03-31T19:57:16;5.00;;;1.63;;
9052;SDS011;4561;47.450;7.516;2023-03-31T20:00:36;3.70;;;1.30;;
9052;SDS011;4561;47.450;7.516;2023-03-31T20:03:57;3.70;;;1.10;;
9052;SDS011;4561;47.450;7.516;2023-03-31T20:07:20;4.70;;;1.63;;
9052;SDS011;4561;47.450;7.516;2023-03-31T20:10:42;2.40;;;1.30;;
9052;SDS011;4561;47.450;7.516;2023-03-31T20:14:05;5.13;;;1.60;;
9052;SDS011;4561;47.450;7.516;2023-03-31T20:17:26;4.97;;;1.50;;
9052;SDS011;4561;47.450;7.516;2023-03-31T20:20:47;5.43;;;1.50;;
9052;SDS011;4561;47.450;7.516;2023-03-31T20:24:08;6.63;;;1.60;;
9052;SDS011;4561;47.450;7.516;2023-03-31T20:27:41;5.50;;;1.77;;
9052;SDS011;4561;47.450;7.516;2023-03-31T20:31:05;5.07;;;1.80;;
9052;SDS011;4561;47.450;7.516;2023-03-31T20:34:30;4.10;;;1.63;;
9052;SDS011;4561;47.450;7.516;2023-03-31T20:37:51;8.23;;;2.03;;
9052;SDS011;4561;47.450;7.516;2023-03-31T20:41:11;3.60;;;1.70;;
9052;SDS011;4561;47.450;7.516;2023-03-31T20:44:32;5.00;;;1.60;;
9052;SDS011;4561;47.450;7.516;2023-03-31T20:47:53;5.80;;;1.57;;
9052;SDS011;4561;47.450;7.516;2023-03-31T20:51:15;4.50;;;1.80;;
9052;SDS011;4561;47.450;7.516;2023-03-31T20:54:37;5.63;;;2.00;;
9052;SDS011;4561;47.450;7.516;2023-03-31T20:57:58;3.70;;;1.50;;
9052;SDS011;4561;47.450;7.516;2023-03-31T21:01:18;5.07;;;1.50;;
9052;SDS011;4561;47.450;7.516;2023-03-31T21:04:39;5.33;;;1.40;;
9052;SDS011;4561;47.450;7.516;2023-03-31T21:08:02;5.40;;;1.40;;
9052;SDS011;4561;47.450;7.516;2023-03-31T21:11:23;4.47;;;1.77;;
9052;SDS011;4561;47.450;7.516;2023-03-31T21:14:46;7.03;;;1.43;;
9052;SDS011;4561;47.450;7.516;2023-03-31T21:18:07;3.97;;;1.67;;
9052;SDS011;4561;47.450;7.516;2023-03-31T21:21:30;3.87;;;1.30;;
9052;SDS011;4561;47.450;7.516;2023-03-31T21:24:50;6.57;;;1.70;;
9052;SDS011;4561;47.450;7.516;2023-03-31T21:28:11;4.87;;;1.50;;
9052;SDS011;4561;47.450;7.516;2023-03-31T21:31:31;7.80;;;2.10;;
9052;SDS011;4561;47.450;7.516;2023-03-31T21:34:52;3.53;;;1.53;;
9052;SDS011;4561;47.450;7.516;2023-03-31T21:38:13;4.63;;;1.60;;
9052;SDS011;4561;47.450;7.516;2023-03-31T21:41:34;7.93;;;2.23;;
9052;SDS011;4561;47.450;7.516;2023-03-31T21:44:54;5.60;;;1.50;;
9052;SDS011;4561;47.450;7.516;2023-03-31T21:48:17;6.47;;;2.13;;
9052;SDS011;4561;47.450;7.516;2023-03-31T21:51:43;5.37;;;1.53;;
9052;SDS011;4561;47.450;7.516;2023-03-31T21:55:04;7.07;;;1.60;;
9052;SDS011;4561;47.450;7.516;2023-03-31T21:58:27;4.23;;;1.43;;
9052;SDS011;4561;47.450;7.516;2023-03-31T22:01:47;3.57;;;1.37;;
9052;SDS011;4561;47.450;7.516;2023-03-31T22:05:08;5.17;;;1.60;;
9052;SDS011;4561;47.450;7.516;2023-03-31T22:08:29;5.40;;;1.27;;
9052;SDS011;4561;47.450;7.516;2023-03-31T22:11:50;6.20;;;1.47;;
9052;SDS011;4561;47.450;7.516;2023-03-31T22:15:11;6.50;;;1.53;;
9052;SDS011;4561;47.450;7.516;2023-03-31T22:18:34;4.23;;;1.47;;
9052;SDS011;4561;47.450;7.516;2023-03-31T22:21:54;6.10;;;1.47;;
9052;SDS011;4561;47.450;7.516;2023-03-31T22:25:17;5.10;;;1.90;;
9052;SDS011;4561;47.450;7.516;2023-03-31T22:28:37;7.37;;;1.77;;
9052;SDS011;4561;47.450;7.516;2023-03-31T22:31:58;4.87;;;1.57;;
9052;SDS011;4561;47.450;7.516;2023-03-31T22:35:18;10.37;;;1.97;;
9052;SDS011;4561;47.450;7.516;2023-03-31T22:38:39;3.73;;;1.40;;
9052;SDS011;4561;47.450;7.516;2023-03-31T22:42:00;5.07;;;1.80;;
9052;SDS011;4561;47.450;7.516;2023-03-31T22:45:21;4.57;;;1.43;;
9052;SDS011;4561;47.450;7.516;2023-03-31T22:48:41;7.20;;;2.03;;
9052;SDS011;4561;47.450;7.516;2023-03-31T22:52:04;8.93;;;1.90;;
9052;SDS011;4561;47.450;7.516;2023-03-31T22:55:24;8.47;;;1.47;;
9052;SDS011;4561;47.450;7.516;2023-03-31T22:58:45;5.77;;;1.90;;
9052;SDS011;4561;47.450;7.516;2023-03-31T23:02:06;3.53;;;1.23;;
9052;SDS011;4561;47.450;7.516;2023-03-31T23:05:29;4.57;;;1.10;;
9052;SDS011;4561;47.450;7.516;2023-03-31T23:08:52;1.93;;;0.80;;
9052;SDS011;4561;47.450;7.516;2023-03-31T23:12:15;1.80;;;0.90;;
9052;SDS011;4561;47.450;7.516;2023-03-31T23:15:35;1.67;;;0.90;;
9052;SDS011;4561;47.450;7.516;2023-03-31T23:18:56;3.40;;;1.33;;
9052;SDS011;4561;47.450;7.516;2023-03-31T23:22:16;5.53;;;1.70;;
9052;SDS011;4561;47.450;7.516;2023-03-31T23:25:37;5.67;;;1.57;;
9052;SDS011;4561;47.450;7.516;2023-03-31T23:28:58;7.47;;;2.10;;
9052;SDS011;4561;47.450;7.516;2023-03-31T23:32:19;6.83;;;1.70;;
9052;SDS011;4561;47.450;7.516;2023-03-31T23:35:39;7.80;;;2.20;;
9052;SDS011;4561;47.450;7.516;2023-03-31T23:39:00;7.40;;;2.00;;
9052;SDS011;4561;47.450;7.516;2023-03-31T23:42:20;6.10;;;1.77;;